sensor_id;sensor_type;location;lat;lon;timestamp;temperature;humidity
11925;DHT22;6022;48.768;18.608;2023-05-10T00:01:25;9.50;99.90
11925;DHT22;6022;48.768;18.608;2023-05-10T00:03:54;9.60;99.90
11925;DHT22;6022;48.768;18.608;2023-05-10T00:06:24;9.60;99.90
11925;DHT22;6022;48.768;18.608;2023-05-10T00:08:54;9.20;99.90
11925;DHT22;6022;48.768;18.608;2023-05-10T00:11:24;9.50;99.90
11925;DHT22;6022;48.768;18.608;2023-05-10T00:13:56;9.40;99.90
11925;DHT22;6022;48.768;18.608;2023-05-10T00:16:25;9.40;99.90
11925;DHT22;6022;48.768;18.608;2023-05-10T00:18:53;9.00;99.90
11925;DHT22;6022;48.768;18.608;2023-05-10T00:21:22;9.10;99.90
11925;DHT22;6022;48.768;18.608;2023-05-10T00:23:51;9.10;99.90
11925;DHT22;6022;48.768;18.608;2023-05-10T00:26:19;9.20;99.90
11925;DHT22;6022;48.768;18.608;2023-05-10T00:28:48;9.00;99.90
11925;DHT22;6022;48.768;18.608;2023-05-10T00:31:16;9.20;99.90
11925;DHT22;6022;48.768;18.608;2023-05-10T00:33:46;8.90;99.90
11925;DHT22;6022;48.768;18.608;2023-05-10T00:36:14;9.00;99.90
11925;DHT22;6022;48.768;18.608;2023-05-10T00:38:44;9.00;99.90
11925;DHT22;6022;48.768;18.608;2023-05-10T00:41:13;9.00;99.90
11925;DHT22;6022;48.768;18.608;2023-05-10T00:43:43;8.90;99.90
11925;DHT22;6022;48.768;18.608;2023-05-10T00:46:11;8.80;99.90
11925;DHT22;6022;48.768;18.608;2023-05-10T00:48:40;8.90;99.90
11925;DHT22;6022;48.768;18.608;2023-05-10T00:51:10;8.80;99.90
11925;DHT22;6022;48.768;18.608;2023-05-10T00:53:39;8.80;99.90
11925;DHT22;6022;48.768;18.608;2023-05-10T00:56:09;8.80;99.90
11925;DHT22;6022;48.768;18.608;2023-05-10T00:58:39;8.70;99.90
11925;DHT22;6022;48.768;18.608;2023-05-10T01:01:09;8.90;99.90
11925;DHT22;6022;48.768;18.608;2023-05-10T01:03:38;8.80;99.90
11925;DHT22;6022;48.768;18.608;2023-05-10T01:06:08;8.80;99.90
11925;DHT22;6022;48.768;18.608;2023-05-10T01:08:37;8.90;99.90
11925;DHT22;6022;48.768;18.608;2023-05-10T01:11:08;8.70;99.90
11925;DHT22;6022;48.768;18.608;2023-05-10T01:13:39;8.90;99.90
11925;DHT22;6022;48.768;18.608;2023-05-10T01:16:10;8.90;99.90
11925;DHT22;6022;48.768;18.608;2023-05-10T01:18:40;8.40;99.90
11925;DHT22;6022;48.768;18.608;2023-05-10T01:21:37;8.60;99.90
11925;DHT22;6022;48.768;18.608;2023-05-10T01:33:19;8.90;99.90
11925;DHT22;6022;48.768;18.608;2023-05-10T01:38:38;8.50;99.90
11925;DHT22;6022;48.768;18.608;2023-05-10T01:47:12;8.40;99.90
11925;DHT22;6022;48.768;18.608;2023-05-10T01:49:50;8.30;99.90
11925;DHT22;6022;48.768;18.608;2023-05-10T01:52:28;8.30;99.90
11925;DHT22;6022;48.768;18.608;2023-05-10T01:55:08;8.70;99.90
11925;DHT22;6022;48.768;18.608;2023-05-10T01:57:40;8.40;99.90
11925;DHT22;6022;48.768;18.608;2023-05-10T02:00:13;8.80;99.90
11925;DHT22;6022;48.768;18.608;2023-05-10T02:02:48;8.50;99.90
11925;DHT22;6022;48.768;18.608;2023-05-10T02:05:19;8.50;99.90
11925;DHT22;6022;48.768;18.608;2023-05-10T02:07:53;8.40;99.90
11925;DHT22;6022;48.768;18.608;2023-05-10T02:10:23;8.70;99.90
11925;DHT22;6022;48.768;18.608;2023-05-10T02:12:53;8.60;99.90
11925;DHT22;6022;48.768;18.608;2023-05-10T02:15:26;8.10;99.90
11925;DHT22;6022;48.768;18.608;2023-05-10T02:17:57;8.10;99.90
11925;DHT22;6022;48.768;18.608;2023-05-10T02:20:27;8.10;99.90
11925;DHT22;6022;48.768;18.608;2023-05-10T02:22:57;8.20;99.90
11925;DHT22;6022;48.768;18.608;2023-05-10T02:25:27;8.10;99.90
11925;DHT22;6022;48.768;18.608;2023-05-10T02:28:01;8.60;99.90
11925;DHT22;6022;48.768;18.608;2023-05-10T02:30:33;8.50;99.90
11925;DHT22;6022;48.768;18.608;2023-05-10T02:33:04;8.60;99.90
11925;DHT22;6022;48.768;18.608;2023-05-10T02:35:34;8.40;99.90
11925;DHT22;6022;48.768;18.608;2023-05-10T02:38:06;8.50;99.90
11925;DHT22;6022;48.768;18.608;2023-05-10T02:40:37;8.60;99.90
11925;DHT22;6022;48.768;18.608;2023-05-10T02:43:06;8.50;99.90
11925;DHT22;6022;48.768;18.608;2023-05-10T02:45:41;8.60;99.90
11925;DHT22;6022;48.768;18.608;2023-05-10T02:48:12;8.60;99.90
11925;DHT22;6022;48.768;18.608;2023-05-10T02:50:44;8.40;99.90
11925;DHT22;6022;48.768;18.608;2023-05-10T02:53:18;8.30;99.90
11925;DHT22;6022;48.768;18.608;2023-05-10T02:55:52;8.20;99.90
11925;DHT22;6022;48.768;18.608;2023-05-10T02:58:25;8.30;99.90
11925;DHT22;6022;48.768;18.608;2023-05-10T03:00:53;8.20;99.90
11925;DHT22;6022;48.768;18.608;2023-05-10T03:03:23;8.00;99.90
11925;DHT22;6022;48.768;18.608;2023-05-10T03:05:54;8.20;99.90
11925;DHT22;6022;48.768;18.608;2023-05-10T03:08:24;8.00;99.90
11925;DHT22;6022;48.768;18.608;2023-05-10T03:20:25;8.00;99.90
11925;DHT22;6022;48.768;18.608;2023-05-10T03:23:35;8.30;99.90
11925;DHT22;6022;48.768;18.608;2023-05-10T03:26:08;8.10;99.90
11925;DHT22;6022;48.768;18.608;2023-05-10T03:28:42;8.40;99.90
11925;DHT22;6022;48.768;18.608;2023-05-10T03:31:12;8.10;99.90
11925;DHT22;6022;48.768;18.608;2023-05-10T03:33:48;8.20;99.90
11925;DHT22;6022;48.768;18.608;2023-05-10T03:36:19;8.60;99.90
11925;DHT22;6022;48.768;18.608;2023-05-10T03:38:48;8.70;99.90
11925;DHT22;6022;48.768;18.608;2023-05-10T03:41:17;8.60;99.90
11925;DHT22;6022;48.768;18.608;2023-05-10T03:43:46;8.70;99.90
11925;DHT22;6022;48.768;18.608;2023-05-10T03:46:14;8.80;99.90
11925;DHT22;6022;48.768;18.608;2023-05-10T03:48:43;8.80;99.90
11925;DHT22;6022;48.768;18.608;2023-05-10T03:51:13;8.70;99.90
11925;DHT22;6022;48.768;18.608;2023-05-10T03:53:41;9.00;99.90
11925;DHT22;6022;48.768;18.608;2023-05-10T03:56:14;9.40;99.90
11925;DHT22;6022;48.768;18.608;2023-05-10T03:58:42;9.70;99.90
11925;DHT22;6022;48.768;18.608;2023-05-10T04:01:10;9.80;99.90
11925;DHT22;6022;48.768;18.608;2023-05-10T04:03:40;10.10;99.90
11925;DHT22;6022;48.768;18.608;2023-05-10T04:06:09;10.10;99.90
11925;DHT22;6022;48.768;18.608;2023-05-10T04:08:38;10.20;99.90
11925;DHT22;6022;48.768;18.608;2023-05-10T04:11:08;10.50;99.90
11925;DHT22;6022;48.768;18.608;2023-05-10T04:13:38;10.40;99.90
11925;DHT22;6022;48.768;18.608;2023-05-10T04:16:07;10.30;99.90
11925;DHT22;6022;48.768;18.608;2023-05-10T04:18:37;10.30;99.90
11925;DHT22;6022;48.768;18.608;2023-05-10T04:21:11;10.30;99.90
11925;DHT22;6022;48.768;18.608;2023-05-10T04:23:41;10.50;99.90
11925;DHT22;6022;48.768;18.608;2023-05-10T04:26:12;10.40;99.90
11925;DHT22;6022;48.768;18.608;2023-05-10T04:28:42;11.00;99.90
11925;DHT22;6022;48.768;18.608;2023-05-10T04:31:14;11.20;99.90
11925;DHT22;6022;48.768;18.608;2023-05-10T04:33:42;11.40;99.90
11925;DHT22;6022;48.768;18.608;2023-05-10T04:36:11;11.40;99.90
11925;DHT22;6022;48.768;18.608;2023-05-10T04:38:39;11.40;99.90
11925;DHT22;6022;48.768;18.608;2023-05-10T04:41:09;11.70;99.90
11925;DHT22;6022;48.768;18.608;2023-05-10T04:43:40;12.30;99.90
11925;DHT22;6022;48.768;18.608;2023-05-10T04:46:08;12.50;99.90
11925;DHT22;6022;48.768;18.608;2023-05-10T04:48:38;13.20;99.90
11925;DHT22;6022;48.768;18.608;2023-05-10T04:51:09;13.60;99.90
11925;DHT22;6022;48.768;18.608;2023-05-10T04:53:38;14.00;99.90
11925;DHT22;6022;48.768;18.608;2023-05-10T04:56:08;14.90;99.90
11925;DHT22;6022;48.768;18.608;2023-05-10T04:58:37;14.90;99.90
11925;DHT22;6022;48.768;18.608;2023-05-10T05:01:09;15.90;99.90
11925;DHT22;6022;48.768;18.608;2023-05-10T05:03:38;16.30;99.90
11925;DHT22;6022;48.768;18.608;2023-05-10T05:06:10;17.00;99.90
11925;DHT22;6022;48.768;18.608;2023-05-10T05:08:38;17.20;99.90
11925;DHT22;6022;48.768;18.608;2023-05-10T05:11:07;17.20;99.90
11925;DHT22;6022;48.768;18.608;2023-05-10T05:13:36;18.50;99.90
11925;DHT22;6022;48.768;18.608;2023-05-10T05:16:06;18.40;99.90
11925;DHT22;6022;48.768;18.608;2023-05-10T05:18:39;19.20;97.80
11925;DHT22;6022;48.768;18.608;2023-05-10T05:21:15;20.40;93.90
11925;DHT22;6022;48.768;18.608;2023-05-10T05:23:45;21.00;91.40
11925;DHT22;6022;48.768;18.608;2023-05-10T05:26:14;20.90;85.70
11925;DHT22;6022;48.768;18.608;2023-05-10T05:28:47;21.20;85.30
11925;DHT22;6022;48.768;18.608;2023-05-10T05:31:16;21.20;86.10
11925;DHT22;6022;48.768;18.608;2023-05-10T05:33:44;20.90;80.40
11925;DHT22;6022;48.768;18.608;2023-05-10T05:36:14;21.40;78.40
11925;DHT22;6022;48.768;18.608;2023-05-10T05:38:44;21.30;79.60
11925;DHT22;6022;48.768;18.608;2023-05-10T05:41:13;21.50;77.40
11925;DHT22;6022;48.768;18.608;2023-05-10T05:43:41;22.30;73.50
11925;DHT22;6022;48.768;18.608;2023-05-10T05:46:10;22.00;74.00
11925;DHT22;6022;48.768;18.608;2023-05-10T05:48:42;22.00;71.40
11925;DHT22;6022;48.768;18.608;2023-05-10T05:51:11;22.00;70.60
11925;DHT22;6022;48.768;18.608;2023-05-10T05:53:39;22.50;71.90
11925;DHT22;6022;48.768;18.608;2023-05-10T05:56:08;22.70;68.20
11925;DHT22;6022;48.768;18.608;2023-05-10T05:58:38;23.00;68.80
11925;DHT22;6022;48.768;18.608;2023-05-10T06:01:06;23.70;69.30
11925;DHT22;6022;48.768;18.608;2023-05-10T06:03:35;23.90;67.50
11925;DHT22;6022;48.768;18.608;2023-05-10T06:06:04;23.90;63.90
11925;DHT22;6022;48.768;18.608;2023-05-10T06:08:35;24.40;63.60
11925;DHT22;6022;48.768;18.608;2023-05-10T06:11:04;24.80;63.10
11925;DHT22;6022;48.768;18.608;2023-05-10T06:13:35;25.00;59.00
11925;DHT22;6022;48.768;18.608;2023-05-10T06:16:07;24.30;58.50
11925;DHT22;6022;48.768;18.608;2023-05-10T06:18:35;24.50;59.10
11925;DHT22;6022;48.768;18.608;2023-05-10T06:21:07;23.90;61.30
11925;DHT22;6022;48.768;18.608;2023-05-10T06:23:37;23.70;61.80
11925;DHT22;6022;48.768;18.608;2023-05-10T06:26:08;24.60;62.60
11925;DHT22;6022;48.768;18.608;2023-05-10T06:28:41;25.20;59.30
11925;DHT22;6022;48.768;18.608;2023-05-10T06:31:09;25.80;58.70
11925;DHT22;6022;48.768;18.608;2023-05-10T06:33:42;25.70;55.90
11925;DHT22;6022;48.768;18.608;2023-05-10T06:36:11;25.80;57.00
11925;DHT22;6022;48.768;18.608;2023-05-10T06:38:41;26.20;57.50
11925;DHT22;6022;48.768;18.608;2023-05-10T06:41:10;25.90;53.90
11925;DHT22;6022;48.768;18.608;2023-05-10T06:43:38;26.80;52.80
11925;DHT22;6022;48.768;18.608;2023-05-10T06:46:12;26.80;52.60
11925;DHT22;6022;48.768;18.608;2023-05-10T06:48:45;26.60;50.40
11925;DHT22;6022;48.768;18.608;2023-05-10T06:51:13;26.10;50.70
11925;DHT22;6022;48.768;18.608;2023-05-10T06:53:41;26.00;51.50
11925;DHT22;6022;48.768;18.608;2023-05-10T06:56:09;25.40;51.00
11925;DHT22;6022;48.768;18.608;2023-05-10T06:58:37;25.20;52.40
11925;DHT22;6022;48.768;18.608;2023-05-10T07:01:06;25.40;53.80
11925;DHT22;6022;48.768;18.608;2023-05-10T07:03:35;26.00;51.30
11925;DHT22;6022;48.768;18.608;2023-05-10T07:06:06;25.80;52.00
11925;DHT22;6022;48.768;18.608;2023-05-10T07:08:44;25.90;52.50
11925;DHT22;6022;48.768;18.608;2023-05-10T07:11:12;25.00;52.10
11925;DHT22;6022;48.768;18.608;2023-05-10T07:13:40;25.20;54.60
11925;DHT22;6022;48.768;18.608;2023-05-10T07:16:12;25.10;55.10
11925;DHT22;6022;48.768;18.608;2023-05-10T07:18:40;26.00;53.30
11925;DHT22;6022;48.768;18.608;2023-05-10T07:21:08;26.80;51.50
11925;DHT22;6022;48.768;18.608;2023-05-10T07:23:37;25.10;51.80
11925;DHT22;6022;48.768;18.608;2023-05-10T07:26:10;24.40;51.90
11925;DHT22;6022;48.768;18.608;2023-05-10T07:28:37;23.40;53.60
11925;DHT22;6022;48.768;18.608;2023-05-10T07:31:05;22.50;54.90
11925;DHT22;6022;48.768;18.608;2023-05-10T07:33:33;22.20;57.90
11925;DHT22;6022;48.768;18.608;2023-05-10T07:36:01;21.20;59.30
11925;DHT22;6022;48.768;18.608;2023-05-10T07:38:30;20.40;60.80
11925;DHT22;6022;48.768;18.608;2023-05-10T07:40:58;20.60;61.30
11925;DHT22;6022;48.768;18.608;2023-05-10T07:43:25;19.90;64.90
11925;DHT22;6022;48.768;18.608;2023-05-10T07:45:54;20.00;73.40
11925;DHT22;6022;48.768;18.608;2023-05-10T07:48:23;21.40;72.50
11925;DHT22;6022;48.768;18.608;2023-05-10T07:50:51;23.10;67.10
11925;DHT22;6022;48.768;18.608;2023-05-10T07:53:22;24.40;62.80
11925;DHT22;6022;48.768;18.608;2023-05-10T07:55:51;24.50;62.50
11925;DHT22;6022;48.768;18.608;2023-05-10T07:58:22;24.50;55.70
11925;DHT22;6022;48.768;18.608;2023-05-10T08:00:50;24.20;56.80
11925;DHT22;6022;48.768;18.608;2023-05-10T08:03:18;23.50;58.90
11925;DHT22;6022;48.768;18.608;2023-05-10T08:05:48;23.40;59.40
11925;DHT22;6022;48.768;18.608;2023-05-10T08:08:16;22.40;59.10
11925;DHT22;6022;48.768;18.608;2023-05-10T08:10:49;22.20;59.40
11925;DHT22;6022;48.768;18.608;2023-05-10T08:13:18;22.40;60.50
11925;DHT22;6022;48.768;18.608;2023-05-10T08:15:47;22.30;62.30
11925;DHT22;6022;48.768;18.608;2023-05-10T08:18:18;22.60;63.80
11925;DHT22;6022;48.768;18.608;2023-05-10T08:20:48;22.70;61.60
11925;DHT22;6022;48.768;18.608;2023-05-10T08:23:17;23.40;61.70
11925;DHT22;6022;48.768;18.608;2023-05-10T08:25:45;22.70;59.10
11925;DHT22;6022;48.768;18.608;2023-05-10T08:28:13;22.90;59.10
11925;DHT22;6022;48.768;18.608;2023-05-10T08:30:41;23.50;59.90
11925;DHT22;6022;48.768;18.608;2023-05-10T08:33:10;23.30;58.80
11925;DHT22;6022;48.768;18.608;2023-05-10T08:35:41;24.00;58.60
11925;DHT22;6022;48.768;18.608;2023-05-10T08:38:10;25.30;57.70
11925;DHT22;6022;48.768;18.608;2023-05-10T08:40:41;24.60;58.00
11925;DHT22;6022;48.768;18.608;2023-05-10T08:43:12;24.60;58.50
11925;DHT22;6022;48.768;18.608;2023-05-10T08:45:45;24.60;55.50
11925;DHT22;6022;48.768;18.608;2023-05-10T08:48:14;24.70;55.80
11925;DHT22;6022;48.768;18.608;2023-05-10T08:50:45;25.20;57.10
11925;DHT22;6022;48.768;18.608;2023-05-10T08:53:15;25.30;58.40
11925;DHT22;6022;48.768;18.608;2023-05-10T08:55:44;24.90;54.80
11925;DHT22;6022;48.768;18.608;2023-05-10T08:58:13;25.20;55.30
11925;DHT22;6022;48.768;18.608;2023-05-10T09:00:41;25.40;56.30
11925;DHT22;6022;48.768;18.608;2023-05-10T09:03:11;25.10;56.70
11925;DHT22;6022;48.768;18.608;2023-05-10T09:05:40;24.60;59.20
11925;DHT22;6022;48.768;18.608;2023-05-10T09:08:08;24.80;57.00
11925;DHT22;6022;48.768;18.608;2023-05-10T09:10:38;24.70;57.40
11925;DHT22;6022;48.768;18.608;2023-05-10T09:13:07;23.90;56.60
11925;DHT22;6022;48.768;18.608;2023-05-10T09:15:37;22.80;61.10
11925;DHT22;6022;48.768;18.608;2023-05-10T09:18:05;22.50;62.30
11925;DHT22;6022;48.768;18.608;2023-05-10T09:20:33;23.10;62.10
11925;DHT22;6022;48.768;18.608;2023-05-10T09:23:01;23.20;63.30
11925;DHT22;6022;48.768;18.608;2023-05-10T09:25:29;23.70;60.00
11925;DHT22;6022;48.768;18.608;2023-05-10T09:28:00;23.90;60.40
11925;DHT22;6022;48.768;18.608;2023-05-10T09:30:29;22.00;60.80
11925;DHT22;6022;48.768;18.608;2023-05-10T09:32:59;20.90;62.40
11925;DHT22;6022;48.768;18.608;2023-05-10T09:35:30;21.60;62.00
11925;DHT22;6022;48.768;18.608;2023-05-10T09:38:02;21.50;62.50
11925;DHT22;6022;48.768;18.608;2023-05-10T09:40:32;22.90;63.80
11925;DHT22;6022;48.768;18.608;2023-05-10T09:43:02;22.40;59.60
11925;DHT22;6022;48.768;18.608;2023-05-10T09:45:41;21.30;68.00
11925;DHT22;6022;48.768;18.608;2023-05-10T09:48:09;21.20;67.80
11925;DHT22;6022;48.768;18.608;2023-05-10T09:50:41;21.40;62.60
11925;DHT22;6022;48.768;18.608;2023-05-10T09:53:09;21.50;64.30
11925;DHT22;6022;48.768;18.608;2023-05-10T09:55:44;21.80;64.90
11925;DHT22;6022;48.768;18.608;2023-05-10T09:58:14;22.90;65.30
11925;DHT22;6022;48.768;18.608;2023-05-10T10:00:45;24.60;59.10
11925;DHT22;6022;48.768;18.608;2023-05-10T10:03:20;24.70;61.10
11925;DHT22;6022;48.768;18.608;2023-05-10T10:05:49;24.80;56.00
11925;DHT22;6022;48.768;18.608;2023-05-10T10:08:18;24.70;56.50
11925;DHT22;6022;48.768;18.608;2023-05-10T10:10:48;24.40;55.80
11925;DHT22;6022;48.768;18.608;2023-05-10T10:13:19;23.60;56.20
11925;DHT22;6022;48.768;18.608;2023-05-10T10:15:52;23.80;59.60
11925;DHT22;6022;48.768;18.608;2023-05-10T10:18:23;23.60;58.00
11925;DHT22;6022;48.768;18.608;2023-05-10T10:20:54;22.80;57.70
11925;DHT22;6022;48.768;18.608;2023-05-10T10:23:24;23.40;58.60
11925;DHT22;6022;48.768;18.608;2023-05-10T10:25:54;22.20;58.30
11925;DHT22;6022;48.768;18.608;2023-05-10T10:28:38;22.60;60.40
11925;DHT22;6022;48.768;18.608;2023-05-10T10:31:26;22.90;60.60
11925;DHT22;6022;48.768;18.608;2023-05-10T10:34:28;23.00;59.90
11925;DHT22;6022;48.768;18.608;2023-05-10T10:36:58;22.10;60.50
11925;DHT22;6022;48.768;18.608;2023-05-10T10:39:32;21.20;62.50
11925;DHT22;6022;48.768;18.608;2023-05-10T10:42:04;21.10;63.00
11925;DHT22;6022;48.768;18.608;2023-05-10T10:44:36;22.20;65.00
11925;DHT22;6022;48.768;18.608;2023-05-10T10:49:43;23.70;60.20
11925;DHT22;6022;48.768;18.608;2023-05-10T10:52:25;23.80;57.30
11925;DHT22;6022;48.768;18.608;2023-05-10T10:57:58;22.70;57.50
11925;DHT22;6022;48.768;18.608;2023-05-10T11:00:35;22.40;57.90
11925;DHT22;6022;48.768;18.608;2023-05-10T11:03:12;22.50;59.40
11925;DHT22;6022;48.768;18.608;2023-05-10T11:05:47;22.20;56.30
11925;DHT22;6022;48.768;18.608;2023-05-10T11:08:31;21.70;58.40
11925;DHT22;6022;48.768;18.608;2023-05-10T11:11:05;20.90;60.30
11925;DHT22;6022;48.768;18.608;2023-05-10T11:16:12;20.70;66.40
11925;DHT22;6022;48.768;18.608;2023-05-10T11:18:57;21.90;68.20
11925;DHT22;6022;48.768;18.608;2023-05-10T11:21:45;22.00;59.90
11925;DHT22;6022;48.768;18.608;2023-05-10T11:24:19;23.20;63.20
11925;DHT22;6022;48.768;18.608;2023-05-10T11:26:51;22.40;56.70
11925;DHT22;6022;48.768;18.608;2023-05-10T11:29:21;22.80;59.60
11925;DHT22;6022;48.768;18.608;2023-05-10T11:31:50;22.80;58.30
11925;DHT22;6022;48.768;18.608;2023-05-10T11:34:29;22.80;59.60
11925;DHT22;6022;48.768;18.608;2023-05-10T11:37:01;23.40;58.90
11925;DHT22;6022;48.768;18.608;2023-05-10T11:39:31;23.00;59.70
11925;DHT22;6022;48.768;18.608;2023-05-10T11:42:00;22.70;58.30
11925;DHT22;6022;48.768;18.608;2023-05-10T11:44:32;22.50;59.90
11925;DHT22;6022;48.768;18.608;2023-05-10T11:47:01;22.20;57.70
11925;DHT22;6022;48.768;18.608;2023-05-10T11:49:30;21.80;60.60
11925;DHT22;6022;48.768;18.608;2023-05-10T11:52:06;22.00;56.60
11925;DHT22;6022;48.768;18.608;2023-05-10T11:54:35;23.00;58.80
11925;DHT22;6022;48.768;18.608;2023-05-10T11:57:04;23.00;60.00
11925;DHT22;6022;48.768;18.608;2023-05-10T11:59:31;23.20;57.40
11925;DHT22;6022;48.768;18.608;2023-05-10T12:02:01;23.10;57.30
11925;DHT22;6022;48.768;18.608;2023-05-10T12:04:32;21.60;58.10
11925;DHT22;6022;48.768;18.608;2023-05-10T12:07:01;21.30;59.70
11925;DHT22;6022;48.768;18.608;2023-05-10T12:09:30;20.60;58.80
11925;DHT22;6022;48.768;18.608;2023-05-10T12:12:10;20.30;60.00
11925;DHT22;6022;48.768;18.608;2023-05-10T12:14:44;20.30;62.10
11925;DHT22;6022;48.768;18.608;2023-05-10T12:17:19;20.50;64.30
11925;DHT22;6022;48.768;18.608;2023-05-10T12:19:53;20.70;62.30
11925;DHT22;6022;48.768;18.608;2023-05-10T12:22:25;19.80;64.70
11925;DHT22;6022;48.768;18.608;2023-05-10T12:24:53;20.20;65.10
11925;DHT22;6022;48.768;18.608;2023-05-10T12:27:21;20.80;61.60
11925;DHT22;6022;48.768;18.608;2023-05-10T12:30:07;20.70;62.70
11925;DHT22;6022;48.768;18.608;2023-05-10T12:32:39;20.20;62.60
11925;DHT22;6022;48.768;18.608;2023-05-10T12:35:08;20.50;63.40
11925;DHT22;6022;48.768;18.608;2023-05-10T12:37:36;19.60;64.30
11925;DHT22;6022;48.768;18.608;2023-05-10T12:40:07;19.10;64.40
11925;DHT22;6022;48.768;18.608;2023-05-10T12:42:36;19.00;67.90
11925;DHT22;6022;48.768;18.608;2023-05-10T12:45:10;19.10;67.70
11925;DHT22;6022;48.768;18.608;2023-05-10T12:47:38;18.90;68.30
11925;DHT22;6022;48.768;18.608;2023-05-10T12:50:09;18.60;68.00
11925;DHT22;6022;48.768;18.608;2023-05-10T12:52:38;18.60;68.80
11925;DHT22;6022;48.768;18.608;2023-05-10T12:55:06;18.50;69.80
11925;DHT22;6022;48.768;18.608;2023-05-10T12:57:34;18.20;70.90
11925;DHT22;6022;48.768;18.608;2023-05-10T13:00:02;18.40;73.10
11925;DHT22;6022;48.768;18.608;2023-05-10T13:02:32;18.80;71.50
11925;DHT22;6022;48.768;18.608;2023-05-10T13:05:01;18.50;72.00
11925;DHT22;6022;48.768;18.608;2023-05-10T13:07:29;18.70;71.80
11925;DHT22;6022;48.768;18.608;2023-05-10T13:09:57;19.00;71.10
11925;DHT22;6022;48.768;18.608;2023-05-10T13:12:25;18.70;71.10
11925;DHT22;6022;48.768;18.608;2023-05-10T13:14:54;18.50;72.90
11925;DHT22;6022;48.768;18.608;2023-05-10T13:17:22;18.10;74.90
11925;DHT22;6022;48.768;18.608;2023-05-10T13:20:06;19.00;71.90
11925;DHT22;6022;48.768;18.608;2023-05-10T13:22:35;19.30;66.60
11925;DHT22;6022;48.768;18.608;2023-05-10T13:25:11;18.90;63.80
11925;DHT22;6022;48.768;18.608;2023-05-10T13:27:40;18.70;63.40
11925;DHT22;6022;48.768;18.608;2023-05-10T13:30:09;19.40;65.20
11925;DHT22;6022;48.768;18.608;2023-05-10T13:32:38;19.60;62.20
11925;DHT22;6022;48.768;18.608;2023-05-10T13:35:08;19.40;62.30
11925;DHT22;6022;48.768;18.608;2023-05-10T13:37:36;19.40;63.50
11925;DHT22;6022;48.768;18.608;2023-05-10T13:40:05;19.60;63.20
11925;DHT22;6022;48.768;18.608;2023-05-10T13:42:34;19.90;65.20
11925;DHT22;6022;48.768;18.608;2023-05-10T13:45:02;19.70;60.00
11925;DHT22;6022;48.768;18.608;2023-05-10T13:47:30;19.80;60.40
11925;DHT22;6022;48.768;18.608;2023-05-10T13:49:58;19.60;61.40
11925;DHT22;6022;48.768;18.608;2023-05-10T13:52:26;19.70;63.30
11925;DHT22;6022;48.768;18.608;2023-05-10T13:54:54;19.90;64.50
11925;DHT22;6022;48.768;18.608;2023-05-10T13:57:25;20.00;65.30
11925;DHT22;6022;48.768;18.608;2023-05-10T13:59:53;20.20;68.90
11925;DHT22;6022;48.768;18.608;2023-05-10T14:02:23;20.40;66.00
11925;DHT22;6022;48.768;18.608;2023-05-10T14:04:53;20.40;65.20
11925;DHT22;6022;48.768;18.608;2023-05-10T14:07:22;20.30;67.20
11925;DHT22;6022;48.768;18.608;2023-05-10T14:09:50;19.90;68.30
11925;DHT22;6022;48.768;18.608;2023-05-10T14:12:19;19.70;70.30
11925;DHT22;6022;48.768;18.608;2023-05-10T14:14:47;19.40;67.80
11925;DHT22;6022;48.768;18.608;2023-05-10T14:17:15;18.80;69.50
11925;DHT22;6022;48.768;18.608;2023-05-10T14:19:43;18.60;72.60
11925;DHT22;6022;48.768;18.608;2023-05-10T14:22:11;18.70;73.00
11925;DHT22;6022;48.768;18.608;2023-05-10T14:24:39;18.80;68.90
11925;DHT22;6022;48.768;18.608;2023-05-10T14:27:08;18.90;68.10
11925;DHT22;6022;48.768;18.608;2023-05-10T14:29:37;18.40;69.80
11925;DHT22;6022;48.768;18.608;2023-05-10T14:32:05;18.60;71.10
11925;DHT22;6022;48.768;18.608;2023-05-10T14:34:33;18.60;69.40
11925;DHT22;6022;48.768;18.608;2023-05-10T14:37:01;19.20;70.00
11925;DHT22;6022;48.768;18.608;2023-05-10T14:39:30;18.80;69.10
11925;DHT22;6022;48.768;18.608;2023-05-10T14:41:58;19.10;67.40
11925;DHT22;6022;48.768;18.608;2023-05-10T14:44:28;19.40;67.70
11925;DHT22;6022;48.768;18.608;2023-05-10T14:46:56;19.40;68.40
11925;DHT22;6022;48.768;18.608;2023-05-10T14:49:24;19.40;67.70
11925;DHT22;6022;48.768;18.608;2023-05-10T14:51:53;19.10;65.70
11925;DHT22;6022;48.768;18.608;2023-05-10T14:54:25;19.40;66.80
11925;DHT22;6022;48.768;18.608;2023-05-10T14:56:53;19.50;64.80
11925;DHT22;6022;48.768;18.608;2023-05-10T14:59:25;19.00;64.40
11925;DHT22;6022;48.768;18.608;2023-05-10T15:01:58;18.70;66.70
11925;DHT22;6022;48.768;18.608;2023-05-10T15:04:27;18.20;66.20
11925;DHT22;6022;48.768;18.608;2023-05-10T15:06:55;18.50;67.40
11925;DHT22;6022;48.768;18.608;2023-05-10T15:09:27;18.90;67.10
11925;DHT22;6022;48.768;18.608;2023-05-10T15:11:55;18.50;66.70
11925;DHT22;6022;48.768;18.608;2023-05-10T15:14:23;18.90;64.40
11925;DHT22;6022;48.768;18.608;2023-05-10T15:16:53;18.60;63.10
11925;DHT22;6022;48.768;18.608;2023-05-10T15:19:22;18.80;63.50
11925;DHT22;6022;48.768;18.608;2023-05-10T15:21:50;18.30;60.70
11925;DHT22;6022;48.768;18.608;2023-05-10T15:24:19;18.40;62.10
11925;DHT22;6022;48.768;18.608;2023-05-10T15:26:48;18.70;62.00
11925;DHT22;6022;48.768;18.608;2023-05-10T15:29:16;18.40;61.70
11925;DHT22;6022;48.768;18.608;2023-05-10T15:31:47;18.40;62.30
11925;DHT22;6022;48.768;18.608;2023-05-10T15:34:18;18.20;63.50
11925;DHT22;6022;48.768;18.608;2023-05-10T15:36:46;18.20;63.80
11925;DHT22;6022;48.768;18.608;2023-05-10T15:39:15;17.90;64.10
11925;DHT22;6022;48.768;18.608;2023-05-10T15:41:44;18.20;64.80
11925;DHT22;6022;48.768;18.608;2023-05-10T15:44:18;18.30;65.10
11925;DHT22;6022;48.768;18.608;2023-05-10T15:46:51;18.30;65.80
11925;DHT22;6022;48.768;18.608;2023-05-10T15:49:20;18.10;61.30
11925;DHT22;6022;48.768;18.608;2023-05-10T15:51:48;18.10;63.10
11925;DHT22;6022;48.768;18.608;2023-05-10T15:54:17;18.40;62.80
11925;DHT22;6022;48.768;18.608;2023-05-10T15:56:45;18.30;65.40
11925;DHT22;6022;48.768;18.608;2023-05-10T15:59:14;18.20;68.30
11925;DHT22;6022;48.768;18.608;2023-05-10T16:01:49;18.50;67.90
11925;DHT22;6022;48.768;18.608;2023-05-10T16:04:18;18.40;69.70
11925;DHT22;6022;48.768;18.608;2023-05-10T16:06:51;18.50;69.70
11925;DHT22;6022;48.768;18.608;2023-05-10T16:09:27;18.40;69.20
11925;DHT22;6022;48.768;18.608;2023-05-10T16:11:57;18.30;69.00
11925;DHT22;6022;48.768;18.608;2023-05-10T16:14:25;18.40;69.80
11925;DHT22;6022;48.768;18.608;2023-05-10T16:16:57;18.00;69.00
11925;DHT22;6022;48.768;18.608;2023-05-10T16:19:26;17.80;69.90
11925;DHT22;6022;48.768;18.608;2023-05-10T16:22:00;18.00;71.20
11925;DHT22;6022;48.768;18.608;2023-05-10T16:24:28;18.00;70.00
11925;DHT22;6022;48.768;18.608;2023-05-10T16:27:01;18.00;71.50
11925;DHT22;6022;48.768;18.608;2023-05-10T16:29:29;17.80;74.40
11925;DHT22;6022;48.768;18.608;2023-05-10T16:31:58;17.90;74.40